Airfield :
LOGIN :

Register | Disclaimer

   EN    FR    IT 

 










Legend :    VFR   Marginal VFR   IFR   Intensive IFR   Very Intensive IFR
Visi :
Ceiling :
>= 8 km
>= 3000ft
5 to 8 km
1000 to 3000 ft
1500m to 5 km
500 to 1000 ft
800 to 1500m
200 to 500 ft
< 800m
< 200 ft
Symbols :   Thunderstorms  Fog  Heavy snow  Heavy precipitations  Wind > 20 kt
SIGMETs :     Misc.  Thunderstorms  Icing  Turbulence  Mountain Waves  Volcanic Ashes







- Airport Elevation : 191 ft
- IATA code : RNB


ESDF - Ronneby

CURRENT METAR :
  • 181420Z 10004KT 9999 BKN032 M00/M00 Q1025

EXPIRED METARs :
  • 181350Z 11005KT CAVOK M00/M00 Q1025
  • 181320Z 11004KT 9999 MIFG NSC M01/M01 Q1026
  • 181250Z VRB02KT 9999 MIFG FEW045 M01/M01 Q1026
  • 181220Z VRB02KT 9999 BCFG NSC M01/M01 Q1026
  • 181150Z 07003KT 9999 MIFG FEW045 00/M00 Q1026

TAF TAF ESDF
Valid from the 18 at 15:00 until the 18 at 23:00 UTC


181430Z 1815/1823 11005KT 9999 BCFG SCT020 BKN030
BECMG 1817/1820 8000 NSW BKN013
PROB40 1820/1823 2000 RA BR BKN005
No reported NOTAMs for that airfield.



MET'MAP, your aeronautical weather chart ! - Copyright ORBIFLY December 2007 - Disclaimer

ORBIFLY MET'MAP TEAM :

Programming & Development : Alexandra Zaïnal
Concept & Development : Baudouin d'Aumeries
Co-Development & Prog : Marc-Olivier Méhu
Technical & hardware support : Manuel Goepfert

Contact : metmap@orbifly.com




SOURCES & CREDITS :

   NOAA